Latest Weather Observations for The Monument

IDQ60801

Issued at 10:02 pm EST Saturday 28 February 2015 (issued every 30 minutes, with the page automatically refreshed every 10 minutes)

About weather observations | Map of weather stations | Latest weather observations for QLD | Other Formats
Station Details ID: 037034 Name: THE MONUMENT AIRPORT Lat: -21.81 Lon: 139.93 Height: 288.4 m
Data from the previous 72 hours. | See also: Recent months at The Monument
Date/Time
EST
Temp
°C
App
Temp
°C
Dew
Point
Rel
Hum
%
Delta-T
°C
Wind Press
QNH
hPa
Press
MSL
hPa
Rain
since 9 am
mm
Dir
 
Spd
km/h
Gust
km/h
Spd
kts
Gust
kts
28/10:00pm 29.7 33.6 23.6 69 4.3 N 9 13 5 7 1005.9 1003.7 10.6
28/09:30pm 30.2 34.2 23.1 65 4.9 N 7 13 4 7 1005.9 1003.7 10.6
28/09:00pm 30.2 33.7 22.9 65 5.1 N 9 11 5 6 1005.5 1003.4 10.6
28/08:30pm 29.6 33.6 22.8 67 4.7 NNE 6 11 3 6 1005.4 1003.2 10.6
28/08:00pm 29.1 30.7 22.1 66 4.8 N 17 22 9 12 1004.8 1002.6 10.6
28/07:30pm 28.9 30.6 22.4 68 4.4 N 17 24 9 13 1004.4 1002.2 10.6
28/07:00pm 30.3 32.7 23.0 65 5.1 N 15 22 8 12 1004.2 1002.0 10.6
28/06:30pm 28.5 31.2 23.4 74 3.5 NNE 15 22 8 12 1003.7 1001.5 10.6
28/06:00pm 26.7 24.5 22.8 79 2.7 SSW 39 80 21 43 1004.2 1002.0 6.0
28/05:58pm 25.9 22.9 21.3 76 3.1 SSW 39 80 21 43 1004.2 1002.0 5.6
28/05:57pm 25.5 22.9 20.7 75 3.2 SW 35 80 19 43 1004.2 1002.0 5.2
28/05:55pm 24.5 20.7 18.0 67 4.1 WSW 35 80 19 43 1004.0 1001.8 4.0
28/05:54pm 24.5 20.5 16.7 61 4.9 W 33 78 18 42 1003.8 1001.6 3.0
28/05:53pm 24.6 20.0 13.5 50 6.6 W 30 78 16 42 1004.1 1001.9 1.6
28/05:52pm 37.6 37.7 22.5 41 10.6 WNW 26 65 14 35 1003.9 1001.7 0.0
28/05:30pm 39.3 38.8 16.8 26 14.7 NW 15 28 8 15 1002.8 1000.6 0.0
28/05:00pm 39.3 36.7 16.8 26 14.8 W 26 35 14 19 1003.0 1000.8 0.0
28/04:30pm 39.7 37.5 16.0 25 15.3 WSW 22 32 12 17 1002.9 1000.7 0.0
28/04:00pm 40.1 38.2 15.7 24 15.8 W 20 30 11 16 1003.2 1001.0 0.0
28/03:30pm 40.2 38.7 16.4 25 15.5 WNW 19 39 10 21 1003.5 1001.3 0.0
28/03:00pm 39.3 37.8 16.2 25 15.0 WSW 19 32 10 17 1003.8 1001.6 0.0
28/02:30pm 38.8 38.0 17.0 27 14.3 W 17 39 9 21 1004.2 1002.0 0.0
28/02:00pm 39.4 37.1 15.7 24 15.3 WNW 22 35 12 19 1004.6 1002.4 0.0
28/01:30pm 39.2 37.5 17.3 27 14.4 W 22 35 12 19 1005.0 1002.8 0.0
28/01:00pm 38.4 37.3 17.7 29 13.7 W 20 32 11 17 1005.3 1003.1 0.0
28/12:30pm 38.8 38.1 18.6 30 13.5 W 20 32 11 17 1005.6 1003.5 0.0
28/12:00pm 38.3 37.4 18.2 31 13.4 W 20 30 11 16 1006.1 1003.9 0.0
28/11:30am 37.8 37.3 18.7 32 12.8 W 19 33 10 18 1006.5 1004.3 0.0
28/11:00am 36.4 36.2 19.4 37 11.4 WNW 19 32 10 17 1006.9 1004.7 0.0
28/10:30am 35.0 35.0 20.2 42 10.0 NW 20 28 11 15 1007.1 1004.9 0.0
28/10:00am 34.5 33.9 19.7 41 9.9 NW 22 33 12 18 1007.2 1005.0 0.0
28/09:30am 33.7 33.1 20.5 46 8.9 WNW 24 35 13 19 1007.1 1004.9 0.0
28/09:00am 32.5 31.9 20.4 49 8.2 NW 24 32 13 17 1007.0 1004.8 0.0
28/08:30am 31.5 30.9 20.4 51 7.4 NW 24 32 13 17 1006.9 1004.7 0.0
28/08:00am 30.5 30.8 20.4 54 6.8 NW 19 22 10 12 1006.9 1004.7 0.0
28/07:30am 29.1 30.3 20.0 58 6.0 NW 13 17 7 9 1006.8 1004.6 0.0
28/07:00am 26.6 28.8 20.4 69 4.1 NNW 9 11 5 6 1006.7 1004.5 0.0
28/06:30am 26.2 29.4 20.5 71 3.8 N 4 9 2 5 1006.6 1004.4 0.0
28/06:00am 26.2 28.3 20.1 69 4.0 N 9 11 5 6 1006.4 1004.2 0.0
28/05:30am 27.1 29.0 19.7 64 4.9 NNW 9 11 5 6 1006.2 1004.0 0.0
28/05:00am 28.5 30.9 20.0 60 5.6 WNW 7 9 4 5 1006.0 1003.8 0.0
28/04:30am 28.5 30.9 20.0 60 5.6 NW 7 9 4 5 1005.8 1003.6 0.0
28/04:00am 29.2 30.9 20.1 58 6.1 WNW 11 13 6 7 1006.0 1003.8 0.0
28/03:30am 29.2 31.6 20.1 58 6.0 W 7 9 4 5 1005.9 1003.7 0.0
28/03:00am 29.5 31.2 20.1 57 6.3 W 11 15 6 8 1005.8 1003.6 0.0
28/02:30am 29.3 31.3 19.9 57 6.2 WSW 9 11 5 6 1005.8 1003.6 0.0
28/02:00am 29.8 31.5 20.1 56 6.5 WSW 11 17 6 9 1006.1 1003.9 0.0
28/01:30am 29.9 31.6 20.2 56 6.5 WSW 11 15 6 8 1006.5 1004.3 0.0
28/01:00am 30.4 32.4 20.0 53 6.9 WSW 9 15 5 8 1006.9 1004.7 0.0
28/12:30am 31.1 32.0 20.1 52 7.3 WNW 15 20 8 11 1006.5 1004.3 0.0
 
Date/Time
EST
Temp
°C
App
Temp
°C
Dew
Point
Rel
Hum
%
Delta-T
°C
Wind Press
QNH
hPa
Press
MSL
hPa
Rain
since 9 am
mm
Dir
 
Spd
km/h
Gust
km/h
Spd
kts
Gust
kts
27/11:30pm 31.6 31.8 20.5 51 7.5 NW 20 26 11 14 1006.5 1004.3 0.0
27/11:00pm 31.9 31.7 20.5 51 7.7 NW 22 30 12 16 1006.7 1004.5 0.0
27/10:30pm 32.3 31.6 20.2 48 8.1 NW 24 33 13 18 1006.7 1004.5 0.0
27/10:00pm 32.7 31.7 19.6 46 8.7 NW 24 33 13 18 1006.7 1004.5 0.0
27/09:47pm 33.4 33.5 19.1 42 9.5 NNW 17 48 9 26 1006.5 1004.3 0.0
27/09:30pm 34.2 33.3 11.4 25 13.6 S 7 9 4 5 1005.6 1003.5 0.0
27/09:00pm 35.0 33.7 11.4 24 14.1 S 9 11 5 6 1005.2 1003.0 0.0
27/08:30pm 35.6 36.2 11.9 24 14.3 CALM 0 6 0 3 1004.8 1002.6 0.0
27/08:00pm 36.2 34.9 11.1 22 15.1 S 9 11 5 6 1004.0 1001.8 0.0
27/07:30pm 37.0 35.7 11.1 21 15.5 S 9 11 5 6 1003.4 1001.2 0.0
27/07:00pm 38.6 36.8 10.9 19 16.7 SSW 11 17 6 9 1003.0 1000.8 0.0
27/06:30pm 39.6 38.0 11.7 19 17.0 WSW 11 15 6 8 1003.0 1000.8 0.0
27/06:00pm 39.1 36.3 11.3 19 16.9 SSW 17 22 9 12 1002.8 1000.6 0.0
27/05:30pm 40.0 38.3 11.2 18 17.5 SW 11 26 6 14 1002.7 1000.5 0.0
27/05:00pm 41.2 38.2 12.1 18 18.0 S 19 28 10 15 1002.7 1000.5 0.0
27/04:30pm 40.9 37.9 12.7 19 17.5 SSW 20 30 11 16 1002.7 1000.5 0.0
27/04:00pm 41.1 38.8 12.9 19 17.7 SSW 17 24 9 13 1003.0 1000.8 0.0
27/03:30pm 40.0 38.6 13.5 21 16.6 SSW 13 20 7 11 1003.3 1001.1 0.0
27/03:00pm 39.8 39.5 13.3 20 16.6 WSW 7 15 4 8 1003.7 1001.5 0.0
27/02:30pm 38.9 38.6 13.3 22 15.9 NW 7 13 4 7 1004.1 1001.9 0.0
27/02:00pm 38.9 37.6 12.6 21 16.3 WNW 11 20 6 11 1004.7 1002.5 0.0
27/01:30pm 39.1 37.4 14.8 23 15.5 WNW 17 28 9 15 1005.2 1003.0 0.0
27/01:00pm 38.5 36.5 15.0 25 15.0 WSW 19 32 10 17 1006.0 1003.8 0.0
27/12:30pm 38.2 36.3 15.3 25 14.6 WNW 19 30 10 16 1006.4 1004.2 0.0
27/12:00pm 37.8 36.4 15.6 27 14.2 WNW 17 26 9 14 1006.9 1004.7 0.0
27/11:30am 37.0 36.2 16.0 28 13.5 WNW 15 22 8 12 1007.3 1005.1 0.0
27/11:00am 35.8 34.8 16.5 31 12.5 W 17 33 9 18 1007.6 1005.4 0.0
27/10:30am 35.4 34.4 17.6 35 11.6 WNW 19 28 10 15 1007.9 1005.7 0.0
27/10:00am 34.7 34.4 19.5 40 10.2 W 20 26 11 14 1008.1 1005.9 0.0
27/09:30am 33.1 32.9 20.6 47 8.4 WNW 22 30 12 16 1008.2 1006.0 0.0
27/09:00am 32.2 31.7 20.8 51 7.7 WNW 24 30 13 16 1008.2 1006.0 0.2
27/08:30am 31.1 31.0 20.7 54 7.0 WNW 22 32 12 17 1007.8 1005.6 0.2
27/08:00am 30.0 30.6 20.3 56 6.5 WNW 17 22 9 12 1007.6 1005.4 0.2
27/07:30am 28.9 30.4 19.8 58 6.0 WNW 11 15 6 8 1007.4 1005.2 0.2
27/07:00am 27.8 29.6 19.6 61 5.4 NW 9 13 5 7 1007.0 1004.8 0.2
27/06:30am 27.5 28.7 19.0 59 5.5 WNW 11 15 6 8 1006.7 1004.5 0.2
27/06:00am 27.9 28.4 18.3 56 6.2 W 13 17 7 9 1006.5 1004.3 0.2
27/05:30am 28.2 28.5 18.0 54 6.6 WNW 13 17 7 9 1006.2 1004.0 0.2
27/05:00am 28.1 28.5 18.2 55 6.4 W 13 19 7 10 1006.1 1003.9 0.2
27/04:30am 27.6 28.0 18.9 59 5.7 NW 15 20 8 11 1006.1 1003.9 0.2
27/04:00am 28.2 29.3 18.9 57 6.1 WNW 11 13 6 7 1006.0 1003.8 0.2
27/03:30am 27.3 29.0 19.4 62 5.2 NNW 9 11 5 6 1005.9 1003.7 0.2
27/03:00am 27.6 28.9 19.4 61 5.4 NNW 11 15 6 8 1006.1 1003.9 0.2
27/02:30am 27.7 30.9 19.8 62 5.2 N 2 9 1 5 1006.2 1004.0 0.2
27/02:00am 28.0 30.7 19.5 60 5.6 N 4 9 2 5 1006.5 1004.3 0.2
27/01:30am 28.5 31.8 19.1 56 6.1 CALM 0 7 0 4 1006.6 1004.4 0.2
27/01:00am 29.5 31.4 18.9 53 6.9 NW 7 13 4 7 1006.6 1004.4 0.2
27/12:30am 30.0 32.4 19.7 54 6.8 N 6 9 3 5 1006.8 1004.6 0.2
27/12:00am 30.7 33.9 19.7 52 7.3 ENE 2 6 1 3 1006.9 1004.7 0.2
 
Date/Time
EST
Temp
°C
App
Temp
°C
Dew
Point
Rel
Hum
%
Delta-T
°C
Wind Press
QNH
hPa
Press
MSL
hPa
Rain
since 9 am
mm
Dir
 
Spd
km/h
Gust
km/h
Spd
kts
Gust
kts
26/11:30pm 31.5 32.5 19.5 49 8.0 N 13 22 7 12 1006.9 1004.7 0.2
26/11:00pm 31.9 32.4 20.8 51 7.5 N 19 32 10 17 1007.1 1004.9 0.2
26/10:30pm 32.9 33.2 19.7 45 8.8 N 17 24 9 13 1006.7 1004.5 0.2
26/10:00pm 33.1 33.6 19.2 43 9.2 NNE 15 30 8 16 1006.5 1004.3 0.2
26/09:30pm 33.0 33.0 18.0 41 9.8 NE 15 17 8 9 1006.1 1003.9 0.2
26/09:00pm 33.2 35.0 18.2 41 9.8 NNE 6 9 3 5 1005.6 1003.5 0.2
26/08:30pm 33.8 34.9 17.1 37 10.8 NE 7 11 4 6 1005.1 1002.9 0.2
26/08:00pm 34.9 35.5 16.7 34 11.8 NE 9 13 5 7 1004.7 1002.5 0.2
26/07:30pm 35.8 36.9 15.5 29 12.9 ESE 4 13 2 7 1004.3 1002.1 0.2
26/07:00pm 37.8 38.2 13.7 23 15.1 S 4 11 2 6 1004.0 1001.8 0.2
26/06:30pm 38.7 38.2 13.8 22 15.6 SSW 9 15 5 8 1003.8 1001.6 0.2
26/06:00pm 38.7 38.8 14.5 24 15.4 S 7 17 4 9 1003.4 1001.2 0.2
26/05:30pm 38.9 39.1 14.7 24 15.4 S 7 15 4 8 1003.4 1001.2 0.2
26/05:00pm 39.6 39.4 14.6 23 15.9 WSW 9 19 5 10 1003.3 1001.1 0.2
26/04:30pm 39.2 39.2 13.6 22 16.0 SSW 6 15 3 8 1003.3 1001.1 0.2
26/04:00pm 39.7 40.1 14.7 23 16.0 S 6 13 3 7 1003.8 1001.6 0.2
26/03:30pm 39.0 38.3 15.4 25 15.1 WSW 13 19 7 10 1004.3 1002.1 0.2
26/03:00pm 39.0 39.1 16.6 27 14.6 SSE 11 19 6 10 1004.8 1002.6 0.2
26/02:30pm 38.4 39.0 16.7 28 14.1 W 9 17 5 9 1005.3 1003.1 0.2
26/02:00pm 37.8 39.1 17.2 29 13.5 SW 6 9 3 5 1005.9 1003.7 0.2
26/01:30pm 37.1 38.4 17.1 30 13.0 SW 6 13 3 7 1006.4 1004.2 0.2
26/01:00pm 36.1 37.1 16.8 32 12.5 ESE 7 20 4 11 1007.0 1004.8 0.2
26/12:30pm 35.9 36.5 17.6 34 12.0 E 11 22 6 12 1007.4 1005.2 0.2
26/12:00pm 35.9 37.6 18.5 36 11.5 SSE 7 22 4 12 1007.9 1005.7 0.2
26/11:30am 34.4 35.7 18.4 38 10.5 SE 9 19 5 10 1008.2 1006.0 0.2
26/11:00am 33.9 35.4 18.8 41 10.0 WSW 9 17 5 9 1008.6 1006.5 0.2
26/10:53am 33.6 35.5 18.9 41 9.7 WSW 7 15 4 8 1008.7 1006.6 0.2
26/10:31am 33.3 31.2 19.0 42 9.5 SE 28 72 15 39 1008.8 1006.7 0.2
26/10:30am 33.4 32.5 19.8 44 9.1 SE 24 72 13 39 1008.8 1006.7 0.2
26/10:27am 32.9 32.4 19.0 43 9.2 SSE 20 67 11 36 1008.8 1006.7 0.2
26/10:22am 32.7 34.3 19.2 44 8.9 SSW 9 59 5 32 1008.8 1006.7 0.2
26/10:00am 32.0 32.7 18.9 45 8.6 W 13 20 7 11 1009.0 1006.9 0.0
26/09:30am 31.2 32.0 19.9 51 7.5 W 15 20 8 11 1009.2 1007.1 0.0
26/09:00am 29.6 31.6 19.9 56 6.4 WSW 9 11 5 6 1009.5 1007.3 -
26/08:30am 29.1 - - - - NW 9 13 5 7 1009.5 1007.3 12.2
26/08:00am 27.7 - - - - - - - - - 1009.7 1007.5 -
26/07:30am 26.3 - - - - NNE 7 17 4 9 1009.2 1007.1 12.2
26/07:00am 25.2 - - - - NNE 6 7 3 4 1008.8 1006.7 12.2
26/06:30am 25.3 - - - - ENE 13 19 7 10 1008.3 1006.1 12.2
26/06:00am 24.8 - - - - SE 7 11 4 6 1007.5 1005.3 12.2
26/05:30am 25.2 - - - - SSW 9 20 5 11 1007.4 1005.2 12.2
26/05:00am 25.2 - - - - N 2 6 1 3 1006.7 1004.5 12.2
26/04:30am 25.6 - - - - NW 7 9 4 5 1006.4 1004.2 12.2
26/04:00am 26.1 - - - - NW 11 13 6 7 1006.3 1004.1 12.2
26/03:30am 26.1 - - - - WNW 13 15 7 8 1006.4 1004.2 12.2
26/03:00am 26.4 - - - - WNW 17 20 9 11 1006.8 1004.6 12.2
26/02:30am 26.6 - - - - NW 17 20 9 11 1007.0 1004.8 12.2
26/02:00am 26.1 - - - - NNW 13 19 7 10 1007.3 1005.1 12.2
26/01:30am 25.6 - - - - NNW 17 26 9 14 1007.6 1005.4 12.2
26/01:00am 25.8 - - - - N 22 35 12 19 1007.7 1005.5 12.2
26/12:30am 26.1 - - - - N 24 33 13 18 1008.4 1006.2 12.2
26/12:00am 26.0 - - - - N 26 35 14 19 1009.0 1006.9 12.2
 
Date/Time
EST
Temp
°C
App
Temp
°C
Dew
Point
Rel
Hum
%
Delta-T
°C
Wind Press
QNH
hPa
Press
MSL
hPa
Rain
since 9 am
mm
Dir
 
Spd
km/h
Gust
km/h
Spd
kts
Gust
kts
25/11:30pm 25.6 - - - - NNE 24 35 13 19 1009.5 1007.3 12.2
25/11:00pm 25.9 - - - - NNE 22 30 12 16 1009.7 1007.5 12.2
25/10:34pm 26.6 - - - - NE 30 48 16 26 1008.8 1006.7 12.2
25/10:30pm 26.7 - - - - NE 33 48 18 26 1008.7 1006.6 12.2

Other Formats:

Comma delimited format used in spreadsheet applications
http://www.bom.gov.au/fwo/IDQ60801/IDQ60801.94336.axf

JavaScript Object Notation format (JSON) in row-major order
http://www.bom.gov.au/fwo/IDQ60801/IDQ60801.94336.json